sensor_id;sensor_type;location;lat;lon;timestamp;temperature;humidity
4090;DHT22;2059;48.538;12.146;2023-07-20T00:04:22;22.60;98.50
4090;DHT22;2059;48.538;12.146;2023-07-20T00:09:23;22.60;98.70
4090;DHT22;2059;48.538;12.146;2023-07-20T00:14:26;22.50;99.10
4090;DHT22;2059;48.538;12.146;2023-07-20T00:19:28;22.60;99.10
4090;DHT22;2059;48.538;12.146;2023-07-20T00:24:30;22.60;99.00
4090;DHT22;2059;48.538;12.146;2023-07-20T00:29:34;22.50;99.30
4090;DHT22;2059;48.538;12.146;2023-07-20T00:34:36;22.50;99.10
4090;DHT22;2059;48.538;12.146;2023-07-20T00:39:37;22.50;99.10
4090;DHT22;2059;48.538;12.146;2023-07-20T00:44:40;22.50;98.90
4090;DHT22;2059;48.538;12.146;2023-07-20T00:49:42;22.50;98.90
4090;DHT22;2059;48.538;12.146;2023-07-20T00:54:44;22.50;99.00
4090;DHT22;2059;48.538;12.146;2023-07-20T00:59:48;22.50;98.90
4090;DHT22;2059;48.538;12.146;2023-07-20T01:04:49;22.60;99.00
4090;DHT22;2059;48.538;12.146;2023-07-20T01:09:58;22.50;99.00
4090;DHT22;2059;48.538;12.146;2023-07-20T01:15:02;22.50;98.90
4090;DHT22;2059;48.538;12.146;2023-07-20T01:20:05;22.50;98.80
4090;DHT22;2059;48.538;12.146;2023-07-20T01:25:21;22.50;98.70
4090;DHT22;2059;48.538;12.146;2023-07-20T01:30:39;22.50;98.90
4090;DHT22;2059;48.538;12.146;2023-07-20T01:35:56;22.50;98.70
4090;DHT22;2059;48.538;12.146;2023-07-20T01:40:59;22.50;98.50
4090;DHT22;2059;48.538;12.146;2023-07-20T01:46:01;22.40;98.70
4090;DHT22;2059;48.538;12.146;2023-07-20T01:51:04;22.30;98.90
4090;DHT22;2059;48.538;12.146;2023-07-20T01:56:06;22.40;99.00
4090;DHT22;2059;48.538;12.146;2023-07-20T02:01:07;22.40;99.10
4090;DHT22;2059;48.538;12.146;2023-07-20T02:06:10;22.30;99.10
4090;DHT22;2059;48.538;12.146;2023-07-20T02:11:12;22.40;99.30
4090;DHT22;2059;48.538;12.146;2023-07-20T02:16:14;22.40;99.10
4090;DHT22;2059;48.538;12.146;2023-07-20T02:21:17;22.30;99.20
4090;DHT22;2059;48.538;12.146;2023-07-20T02:26:19;22.30;99.10
4090;DHT22;2059;48.538;12.146;2023-07-20T02:31:20;22.20;99.00
4090;DHT22;2059;48.538;12.146;2023-07-20T02:36:24;22.20;99.00
4090;DHT22;2059;48.538;12.146;2023-07-20T02:41:25;22.20;98.90
4090;DHT22;2059;48.538;12.146;2023-07-20T02:46:27;22.10;98.90
4090;DHT22;2059;48.538;12.146;2023-07-20T02:51:31;22.10;98.80
4090;DHT22;2059;48.538;12.146;2023-07-20T02:56:33;22.00;98.60
4090;DHT22;2059;48.538;12.146;2023-07-20T03:01:35;22.00;98.40
4090;DHT22;2059;48.538;12.146;2023-07-20T03:06:38;22.00;98.20
4090;DHT22;2059;48.538;12.146;2023-07-20T03:11:40;22.10;98.10
4090;DHT22;2059;48.538;12.146;2023-07-20T03:16:42;22.00;98.10
4090;DHT22;2059;48.538;12.146;2023-07-20T03:21:45;22.00;98.20
4090;DHT22;2059;48.538;12.146;2023-07-20T03:26:46;22.00;98.20
4090;DHT22;2059;48.538;12.146;2023-07-20T03:31:48;22.10;98.10
4090;DHT22;2059;48.538;12.146;2023-07-20T03:36:52;22.00;98.00
4090;DHT22;2059;48.538;12.146;2023-07-20T03:41:54;22.00;97.90
4090;DHT22;2059;48.538;12.146;2023-07-20T03:46:56;22.10;97.70
4090;DHT22;2059;48.538;12.146;2023-07-20T03:52:00;22.10;97.70
4090;DHT22;2059;48.538;12.146;2023-07-20T03:57:04;22.00;97.60
4090;DHT22;2059;48.538;12.146;2023-07-20T04:02:06;22.10;97.40
4090;DHT22;2059;48.538;12.146;2023-07-20T04:07:09;22.10;97.20
4090;DHT22;2059;48.538;12.146;2023-07-20T04:12:10;22.00;97.00
4090;DHT22;2059;48.538;12.146;2023-07-20T04:17:12;22.00;96.60
4090;DHT22;2059;48.538;12.146;2023-07-20T04:22:15;22.00;96.30
4090;DHT22;2059;48.538;12.146;2023-07-20T04:27:17;22.00;96.00
4090;DHT22;2059;48.538;12.146;2023-07-20T04:32:19;22.10;95.80
4090;DHT22;2059;48.538;12.146;2023-07-20T04:37:22;22.10;95.30
4090;DHT22;2059;48.538;12.146;2023-07-20T04:42:23;22.10;95.30
4090;DHT22;2059;48.538;12.146;2023-07-20T04:47:25;22.10;94.70
4090;DHT22;2059;48.538;12.146;2023-07-20T04:52:28;22.10;94.40
4090;DHT22;2059;48.538;12.146;2023-07-20T04:57:30;22.10;94.20
4090;DHT22;2059;48.538;12.146;2023-07-20T05:02:32;22.10;93.60
4090;DHT22;2059;48.538;12.146;2023-07-20T05:07:35;22.00;93.30
4090;DHT22;2059;48.538;12.146;2023-07-20T05:12:37;22.10;92.60
4090;DHT22;2059;48.538;12.146;2023-07-20T05:17:38;22.00;92.10
4090;DHT22;2059;48.538;12.146;2023-07-20T05:22:42;22.00;91.60
4090;DHT22;2059;48.538;12.146;2023-07-20T05:27:45;22.10;91.40
4090;DHT22;2059;48.538;12.146;2023-07-20T05:32:46;22.10;91.10
4090;DHT22;2059;48.538;12.146;2023-07-20T05:37:52;22.00;90.60
4090;DHT22;2059;48.538;12.146;2023-07-20T05:42:54;22.20;90.40
4090;DHT22;2059;48.538;12.146;2023-07-20T05:47:57;22.20;90.10
4090;DHT22;2059;48.538;12.146;2023-07-20T05:53:00;22.30;89.80
4090;DHT22;2059;48.538;12.146;2023-07-20T06:03:05;22.60;89.70
4090;DHT22;2059;48.538;12.146;2023-07-20T06:08:08;22.60;89.00
4090;DHT22;2059;48.538;12.146;2023-07-20T06:13:10;22.60;86.40
4090;DHT22;2059;48.538;12.146;2023-07-20T06:18:12;22.50;85.70
4090;DHT22;2059;48.538;12.146;2023-07-20T06:23:15;22.70;86.90
4090;DHT22;2059;48.538;12.146;2023-07-20T06:28:17;22.80;84.80
4090;DHT22;2059;48.538;12.146;2023-07-20T06:33:19;22.70;84.30
4090;DHT22;2059;48.538;12.146;2023-07-20T06:38:23;22.70;83.90
4090;DHT22;2059;48.538;12.146;2023-07-20T06:43:25;22.60;85.00
4090;DHT22;2059;48.538;12.146;2023-07-20T06:48:26;22.80;83.70
4090;DHT22;2059;48.538;12.146;2023-07-20T06:53:30;22.80;83.80
4090;DHT22;2059;48.538;12.146;2023-07-20T06:58:32;22.90;83.80
4090;DHT22;2059;48.538;12.146;2023-07-20T07:03:34;23.10;84.80
4090;DHT22;2059;48.538;12.146;2023-07-20T07:08:38;23.30;84.30
4090;DHT22;2059;48.538;12.146;2023-07-20T07:13:40;23.50;84.20
4090;DHT22;2059;48.538;12.146;2023-07-20T07:18:42;23.60;82.10
4090;DHT22;2059;48.538;12.146;2023-07-20T07:23:45;23.60;81.80
4090;DHT22;2059;48.538;12.146;2023-07-20T07:28:47;23.70;82.60
4090;DHT22;2059;48.538;12.146;2023-07-20T07:33:49;23.80;82.10
4090;DHT22;2059;48.538;12.146;2023-07-20T07:38:52;23.90;81.60
4090;DHT22;2059;48.538;12.146;2023-07-20T07:43:54;24.10;81.30
4090;DHT22;2059;48.538;12.146;2023-07-20T07:48:55;24.20;80.80
4090;DHT22;2059;48.538;12.146;2023-07-20T07:53:58;24.40;79.30
4090;DHT22;2059;48.538;12.146;2023-07-20T07:59:00;24.50;78.90
4090;DHT22;2059;48.538;12.146;2023-07-20T08:04:03;25.10;76.20
4090;DHT22;2059;48.538;12.146;2023-07-20T08:09:06;24.90;76.40
4090;DHT22;2059;48.538;12.146;2023-07-20T08:14:08;25.10;76.00
4090;DHT22;2059;48.538;12.146;2023-07-20T08:19:10;25.00;76.30
4090;DHT22;2059;48.538;12.146;2023-07-20T08:24:13;25.10;76.60
4090;DHT22;2059;48.538;12.146;2023-07-20T08:29:14;25.20;75.00
4090;DHT22;2059;48.538;12.146;2023-07-20T08:34:16;25.20;75.00
4090;DHT22;2059;48.538;12.146;2023-07-20T08:39:19;25.30;75.80
4090;DHT22;2059;48.538;12.146;2023-07-20T08:44:22;25.50;74.10
4090;DHT22;2059;48.538;12.146;2023-07-20T08:49:26;25.80;75.40
4090;DHT22;2059;48.538;12.146;2023-07-20T08:54:30;26.10;71.10
4090;DHT22;2059;48.538;12.146;2023-07-20T08:59:34;26.30;69.80
4090;DHT22;2059;48.538;12.146;2023-07-20T09:04:38;26.10;70.90
4090;DHT22;2059;48.538;12.146;2023-07-20T09:09:41;26.00;69.60
4090;DHT22;2059;48.538;12.146;2023-07-20T09:14:43;25.90;71.80
4090;DHT22;2059;48.538;12.146;2023-07-20T09:19:46;25.80;72.80
4090;DHT22;2059;48.538;12.146;2023-07-20T09:24:52;25.60;71.30
4090;DHT22;2059;48.538;12.146;2023-07-20T09:29:54;25.80;72.20
4090;DHT22;2059;48.538;12.146;2023-07-20T09:34:56;25.80;70.40
4090;DHT22;2059;48.538;12.146;2023-07-20T09:39:59;26.30;73.10
4090;DHT22;2059;48.538;12.146;2023-07-20T09:45:01;27.10;68.30
4090;DHT22;2059;48.538;12.146;2023-07-20T09:50:03;26.90;68.20
4090;DHT22;2059;48.538;12.146;2023-07-20T09:55:13;26.50;68.10
4090;DHT22;2059;48.538;12.146;2023-07-20T10:00:15;26.30;66.80
4090;DHT22;2059;48.538;12.146;2023-07-20T10:05:18;25.90;66.90
4090;DHT22;2059;48.538;12.146;2023-07-20T10:10:21;26.10;67.20
4090;DHT22;2059;48.538;12.146;2023-07-20T10:15:26;26.20;67.40
4090;DHT22;2059;48.538;12.146;2023-07-20T10:20:30;26.50;66.40
4090;DHT22;2059;48.538;12.146;2023-07-20T10:25:35;26.80;66.00
4090;DHT22;2059;48.538;12.146;2023-07-20T10:30:38;27.50;61.80
4090;DHT22;2059;48.538;12.146;2023-07-20T10:35:53;27.40;61.40
4090;DHT22;2059;48.538;12.146;2023-07-20T10:40:56;27.10;62.20
4090;DHT22;2059;48.538;12.146;2023-07-20T10:45:58;26.90;59.90
4090;DHT22;2059;48.538;12.146;2023-07-20T10:51:11;26.80;61.00
4090;DHT22;2059;48.538;12.146;2023-07-20T10:56:23;26.60;61.00
4090;DHT22;2059;48.538;12.146;2023-07-20T11:01:28;26.90;61.60
4090;DHT22;2059;48.538;12.146;2023-07-20T11:06:32;27.90;62.50
4090;DHT22;2059;48.538;12.146;2023-07-20T11:11:37;28.10;59.60
4090;DHT22;2059;48.538;12.146;2023-07-20T11:16:41;27.90;61.40
4090;DHT22;2059;48.538;12.146;2023-07-20T11:21:44;28.00;61.50
4090;DHT22;2059;48.538;12.146;2023-07-20T11:26:48;28.10;60.90
4090;DHT22;2059;48.538;12.146;2023-07-20T11:31:50;27.80;60.20
4090;DHT22;2059;48.538;12.146;2023-07-20T11:36:52;27.50;59.00
4090;DHT22;2059;48.538;12.146;2023-07-20T11:41:56;27.20;60.10
4090;DHT22;2059;48.538;12.146;2023-07-20T11:47:03;26.80;62.50
4090;DHT22;2059;48.538;12.146;2023-07-20T11:52:06;26.70;62.70
4090;DHT22;2059;48.538;12.146;2023-07-20T11:57:16;27.00;64.10
4090;DHT22;2059;48.538;12.146;2023-07-20T12:02:17;27.50;61.00
4090;DHT22;2059;48.538;12.146;2023-07-20T12:07:19;27.60;62.10
4090;DHT22;2059;48.538;12.146;2023-07-20T12:12:22;28.00;60.20
4090;DHT22;2059;48.538;12.146;2023-07-20T12:17:24;28.10;60.10
4090;DHT22;2059;48.538;12.146;2023-07-20T12:22:26;28.40;60.10
4090;DHT22;2059;48.538;12.146;2023-07-20T12:27:29;28.30;59.60
4090;DHT22;2059;48.538;12.146;2023-07-20T12:32:31;28.50;57.00
4090;DHT22;2059;48.538;12.146;2023-07-20T12:37:33;28.40;58.70
4090;DHT22;2059;48.538;12.146;2023-07-20T12:42:36;28.20;58.80
4090;DHT22;2059;48.538;12.146;2023-07-20T12:47:38;28.30;58.50
4090;DHT22;2059;48.538;12.146;2023-07-20T12:52:40;28.20;58.50
4090;DHT22;2059;48.538;12.146;2023-07-20T12:57:45;28.30;57.60
4090;DHT22;2059;48.538;12.146;2023-07-20T13:02:47;28.00;57.30
4090;DHT22;2059;48.538;12.146;2023-07-20T13:12:53;28.10;58.60
4090;DHT22;2059;48.538;12.146;2023-07-20T13:17:55;28.20;59.00
4090;DHT22;2059;48.538;12.146;2023-07-20T13:22:57;28.60;58.00
4090;DHT22;2059;48.538;12.146;2023-07-20T13:28:00;29.00;57.70
4090;DHT22;2059;48.538;12.146;2023-07-20T13:33:02;28.80;56.40
4090;DHT22;2059;48.538;12.146;2023-07-20T13:38:04;28.40;57.20
4090;DHT22;2059;48.538;12.146;2023-07-20T13:43:07;28.40;58.90
4090;DHT22;2059;48.538;12.146;2023-07-20T13:48:09;28.90;58.30
4090;DHT22;2059;48.538;12.146;2023-07-20T13:53:10;28.90;57.90
4090;DHT22;2059;48.538;12.146;2023-07-20T13:58:14;29.10;55.00
4090;DHT22;2059;48.538;12.146;2023-07-20T14:03:16;28.80;55.30
4090;DHT22;2059;48.538;12.146;2023-07-20T14:08:18;29.10;54.40
4090;DHT22;2059;48.538;12.146;2023-07-20T14:13:21;29.40;56.80
4090;DHT22;2059;48.538;12.146;2023-07-20T14:18:23;29.70;53.50
4090;DHT22;2059;48.538;12.146;2023-07-20T14:23:25;29.40;52.20
4090;DHT22;2059;48.538;12.146;2023-07-20T14:28:29;29.50;52.40
4090;DHT22;2059;48.538;12.146;2023-07-20T14:33:30;29.40;51.40
4090;DHT22;2059;48.538;12.146;2023-07-20T14:38:33;29.40;50.50
4090;DHT22;2059;48.538;12.146;2023-07-20T14:43:37;29.50;50.80
4090;DHT22;2059;48.538;12.146;2023-07-20T14:48:40;29.70;52.60
4090;DHT22;2059;48.538;12.146;2023-07-20T14:53:42;29.70;50.20
4090;DHT22;2059;48.538;12.146;2023-07-20T14:58:45;29.20;53.60
4090;DHT22;2059;48.538;12.146;2023-07-20T15:03:47;29.00;52.70
4090;DHT22;2059;48.538;12.146;2023-07-20T15:08:50;29.00;51.60
4090;DHT22;2059;48.538;12.146;2023-07-20T15:13:53;29.30;52.50
4090;DHT22;2059;48.538;12.146;2023-07-20T15:18:55;29.70;52.70
4090;DHT22;2059;48.538;12.146;2023-07-20T15:23:57;30.10;48.60
4090;DHT22;2059;48.538;12.146;2023-07-20T15:29:00;30.00;50.10
4090;DHT22;2059;48.538;12.146;2023-07-20T15:34:02;30.30;51.10
4090;DHT22;2059;48.538;12.146;2023-07-20T15:39:04;30.60;48.40
4090;DHT22;2059;48.538;12.146;2023-07-20T15:44:07;30.90;48.20
4090;DHT22;2059;48.538;12.146;2023-07-20T15:49:09;30.90;47.80
4090;DHT22;2059;48.538;12.146;2023-07-20T15:54:11;31.30;47.00
4090;DHT22;2059;48.538;12.146;2023-07-20T15:59:16;31.70;45.40
4090;DHT22;2059;48.538;12.146;2023-07-20T16:04:18;31.80;45.10
4090;DHT22;2059;48.538;12.146;2023-07-20T16:09:19;32.30;45.00
4090;DHT22;2059;48.538;12.146;2023-07-20T16:14:23;32.90;41.40
4090;DHT22;2059;48.538;12.146;2023-07-20T16:19:24;34.40;41.10
4090;DHT22;2059;48.538;12.146;2023-07-20T16:24:26;37.90;38.40
4090;DHT22;2059;48.538;12.146;2023-07-20T16:29:30;39.70;32.80
4090;DHT22;2059;48.538;12.146;2023-07-20T16:34:32;40.80;32.70
4090;DHT22;2059;48.538;12.146;2023-07-20T16:39:33;43.90;31.00
4090;DHT22;2059;48.538;12.146;2023-07-20T16:44:42;46.20;28.00
4090;DHT22;2059;48.538;12.146;2023-07-20T16:49:45;47.90;26.90
4090;DHT22;2059;48.538;12.146;2023-07-20T16:54:46;48.90;25.70
4090;DHT22;2059;48.538;12.146;2023-07-20T16:59:50;48.30;25.60
4090;DHT22;2059;48.538;12.146;2023-07-20T17:04:51;44.40;25.80
4090;DHT22;2059;48.538;12.146;2023-07-20T17:09:53;40.00;28.90
4090;DHT22;2059;48.538;12.146;2023-07-20T17:14:56;37.00;32.60
4090;DHT22;2059;48.538;12.146;2023-07-20T17:19:58;35.30;33.10
4090;DHT22;2059;48.538;12.146;2023-07-20T17:25:01;33.40;35.70
4090;DHT22;2059;48.538;12.146;2023-07-20T17:30:05;32.00;36.20
4090;DHT22;2059;48.538;12.146;2023-07-20T17:35:08;31.00;37.80
4090;DHT22;2059;48.538;12.146;2023-07-20T17:40:14;30.20;39.20
4090;DHT22;2059;48.538;12.146;2023-07-20T17:45:20;29.50;41.00
4090;DHT22;2059;48.538;12.146;2023-07-20T17:50:22;29.00;41.30
4090;DHT22;2059;48.538;12.146;2023-07-20T17:55:23;28.50;41.40
4090;DHT22;2059;48.538;12.146;2023-07-20T18:00:28;28.10;42.80
4090;DHT22;2059;48.538;12.146;2023-07-20T18:05:32;27.90;43.80
4090;DHT22;2059;48.538;12.146;2023-07-20T18:10:34;27.70;44.50
4090;DHT22;2059;48.538;12.146;2023-07-20T18:15:37;27.50;44.40
4090;DHT22;2059;48.538;12.146;2023-07-20T18:20:41;27.20;45.10
4090;DHT22;2059;48.538;12.146;2023-07-20T18:25:43;27.00;46.00
4090;DHT22;2059;48.538;12.146;2023-07-20T18:30:47;26.80;45.80
4090;DHT22;2059;48.538;12.146;2023-07-20T18:35:52;26.60;46.40
4090;DHT22;2059;48.538;12.146;2023-07-20T18:40:55;26.40;46.80
4090;DHT22;2059;48.538;12.146;2023-07-20T18:45:58;26.20;46.40
4090;DHT22;2059;48.538;12.146;2023-07-20T18:51:00;26.10;46.60
4090;DHT22;2059;48.538;12.146;2023-07-20T18:56:03;26.00;47.40
4090;DHT22;2059;48.538;12.146;2023-07-20T19:01:08;25.80;47.90
4090;DHT22;2059;48.538;12.146;2023-07-20T19:06:12;25.60;48.20
4090;DHT22;2059;48.538;12.146;2023-07-20T19:11:14;25.50;49.10
4090;DHT22;2059;48.538;12.146;2023-07-20T19:16:18;25.40;49.30
4090;DHT22;2059;48.538;12.146;2023-07-20T19:21:27;25.20;49.40
4090;DHT22;2059;48.538;12.146;2023-07-20T19:26:29;25.10;49.90
4090;DHT22;2059;48.538;12.146;2023-07-20T19:31:35;25.00;50.30
4090;DHT22;2059;48.538;12.146;2023-07-20T19:36:36;24.80;51.00
4090;DHT22;2059;48.538;12.146;2023-07-20T19:41:38;24.60;52.70
4090;DHT22;2059;48.538;12.146;2023-07-20T19:46:44;24.60;53.50
4090;DHT22;2059;48.538;12.146;2023-07-20T19:51:47;24.40;54.50
4090;DHT22;2059;48.538;12.146;2023-07-20T19:56:49;24.30;54.90
4090;DHT22;2059;48.538;12.146;2023-07-20T20:01:52;24.20;55.70
4090;DHT22;2059;48.538;12.146;2023-07-20T20:06:55;24.10;56.50
4090;DHT22;2059;48.538;12.146;2023-07-20T20:11:57;24.00;57.10
4090;DHT22;2059;48.538;12.146;2023-07-20T20:17:06;23.90;57.30
4090;DHT22;2059;48.538;12.146;2023-07-20T20:22:09;23.80;58.70
4090;DHT22;2059;48.538;12.146;2023-07-20T20:27:10;23.50;58.80
4090;DHT22;2059;48.538;12.146;2023-07-20T20:32:14;23.50;59.10
4090;DHT22;2059;48.538;12.146;2023-07-20T20:37:15;23.40;59.20
4090;DHT22;2059;48.538;12.146;2023-07-20T20:42:17;23.40;59.00
4090;DHT22;2059;48.538;12.146;2023-07-20T20:47:21;23.30;59.30
4090;DHT22;2059;48.538;12.146;2023-07-20T20:52:22;23.20;59.80
4090;DHT22;2059;48.538;12.146;2023-07-20T20:57:24;23.10;60.10
4090;DHT22;2059;48.538;12.146;2023-07-20T21:02:27;22.90;60.90
4090;DHT22;2059;48.538;12.146;2023-07-20T21:07:29;22.70;61.60
4090;DHT22;2059;48.538;12.146;2023-07-20T21:12:31;22.70;62.50
4090;DHT22;2059;48.538;12.146;2023-07-20T21:17:34;22.70;63.10
4090;DHT22;2059;48.538;12.146;2023-07-20T21:22:36;22.50;63.70
4090;DHT22;2059;48.538;12.146;2023-07-20T21:27:39;22.30;64.60
4090;DHT22;2059;48.538;12.146;2023-07-20T21:32:44;22.30;64.70
4090;DHT22;2059;48.538;12.146;2023-07-20T21:37:46;22.20;65.10
4090;DHT22;2059;48.538;12.146;2023-07-20T21:42:47;22.10;65.80
4090;DHT22;2059;48.538;12.146;2023-07-20T21:47:51;22.20;65.90
4090;DHT22;2059;48.538;12.146;2023-07-20T21:52:53;22.20;66.00
4090;DHT22;2059;48.538;12.146;2023-07-20T21:57:55;22.10;65.80
4090;DHT22;2059;48.538;12.146;2023-07-20T22:02:58;22.10;65.60
4090;DHT22;2059;48.538;12.146;2023-07-20T22:08:00;21.90;65.90
4090;DHT22;2059;48.538;12.146;2023-07-20T22:13:02;21.80;66.50
4090;DHT22;2059;48.538;12.146;2023-07-20T22:18:05;21.80;66.80
4090;DHT22;2059;48.538;12.146;2023-07-20T22:23:07;21.60;67.10
4090;DHT22;2059;48.538;12.146;2023-07-20T22:28:09;21.60;67.60
4090;DHT22;2059;48.538;12.146;2023-07-20T22:33:12;21.40;67.70
4090;DHT22;2059;48.538;12.146;2023-07-20T22:38:14;21.30;68.00
4090;DHT22;2059;48.538;12.146;2023-07-20T22:43:15;21.40;68.20
4090;DHT22;2059;48.538;12.146;2023-07-20T22:48:19;21.50;67.60
4090;DHT22;2059;48.538;12.146;2023-07-20T22:53:23;21.60;67.10
4090;DHT22;2059;48.538;12.146;2023-07-20T22:58:24;21.60;66.90
4090;DHT22;2059;48.538;12.146;2023-07-20T23:03:27;21.50;66.90
4090;DHT22;2059;48.538;12.146;2023-07-20T23:08:29;21.60;66.20
4090;DHT22;2059;48.538;12.146;2023-07-20T23:13:31;21.40;65.60
4090;DHT22;2059;48.538;12.146;2023-07-20T23:18:38;21.30;65.80
4090;DHT22;2059;48.538;12.146;2023-07-20T23:23:40;21.30;66.70
4090;DHT22;2059;48.538;12.146;2023-07-20T23:28:43;21.10;68.30
4090;DHT22;2059;48.538;12.146;2023-07-20T23:33:47;21.10;68.10
4090;DHT22;2059;48.538;12.146;2023-07-20T23:38:50;21.10;69.10
4090;DHT22;2059;48.538;12.146;2023-07-20T23:43:52;21.00;70.00
4090;DHT22;2059;48.538;12.146;2023-07-20T23:48:59;20.90;70.30
4090;DHT22;2059;48.538;12.146;2023-07-20T23:54:01;20.90;71.00
4090;DHT22;2059;48.538;12.146;2023-07-20T23:59:03;21.00;70.70
